Time;durP1;ratioP1;P1;durP2;ratioP2;P2;SDS_P1;SDS_P2;PMS_P1;PMS_P2;Temp;Humidity;BMP_temperature;BMP_pressure;BME280_temperature;BME280_humidity;BME280_pressure;Samples;Min_cycle;Max_cycle;Signal;HPM_P1;HPM_P2
2023/07/16 00:01:26;;;;;;;6.35;1.52;;;;;;;15.07;100.00;98112.09;5013415;28;20053;-64
2023/07/16 00:03:54;;;;;;;5.70;1.45;;;;;;;15.03;100.00;98110.72;5031662;28;20045;-64
2023/07/16 00:06:22;;;;;;;8.77;1.65;;;;;;;14.98;100.00;98103.28;5042014;28;20051;-64
2023/07/16 00:08:50;;;;;;;8.77;1.80;;;;;;;14.97;100.00;98100.81;5030771;28;20490;-64
2023/07/16 00:11:19;;;;;;;6.82;1.80;;;;;;;14.94;100.00;98107.22;5012935;28;20061;-64
2023/07/16 00:13:48;;;;;;;5.53;1.25;;;;;;;14.90;100.00;98094.47;5022236;28;20057;-64
2023/07/16 00:16:17;;;;;;;4.20;1.40;;;;;;;14.96;100.00;98104.41;5048469;28;20139;-64
2023/07/16 00:18:45;;;;;;;6.03;1.50;;;;;;;14.98;100.00;98102.47;5014777;28;20092;-64
2023/07/16 00:21:13;;;;;;;3.17;1.13;;;;;;;14.83;100.00;98096.88;5028615;28;20073;-64
2023/07/16 00:23:42;;;;;;;6.40;1.45;;;;;;;14.90;100.00;98102.38;5021459;28;20568;-64
2023/07/16 00:26:10;;;;;;;5.60;1.48;;;;;;;14.93;100.00;98096.81;5023697;28;20525;-64
2023/07/16 00:28:38;;;;;;;5.97;1.67;;;;;;;14.94;100.00;98101.94;5033937;28;20044;-64
2023/07/16 00:31:06;;;;;;;16.17;2.17;;;;;;;14.74;100.00;98103.84;5019461;28;20487;-64
2023/07/16 00:33:34;;;;;;;5.18;1.50;;;;;;;14.79;100.00;98103.44;5005934;28;20057;-64
2023/07/16 00:36:02;;;;;;;6.65;1.58;;;;;;;14.76;100.00;98103.72;5021619;28;20057;-64
2023/07/16 00:38:31;;;;;;;6.05;1.60;;;;;;;14.76;100.00;98111.63;5031543;28;20048;-64
2023/07/16 00:40:59;;;;;;;6.38;1.58;;;;;;;14.70;100.00;98115.69;5032919;28;20072;-64
2023/07/16 00:43:27;;;;;;;5.13;1.50;;;;;;;14.59;100.00;98113.25;5019706;28;20049;-64
2023/07/16 00:45:55;;;;;;;4.70;1.50;;;;;;;14.48;100.00;98116.03;5033482;28;20131;-64
2023/07/16 00:48:24;;;;;;;6.18;1.40;;;;;;;14.50;100.00;98111.44;5033414;28;20048;-64
2023/07/16 00:50:53;;;;;;;6.45;1.45;;;;;;;14.30;100.00;98101.03;5012419;28;20054;-64
2023/07/16 00:53:22;;;;;;;5.63;2.03;;;;;;;14.43;100.00;98111.22;5044958;28;20390;-64
2023/07/16 00:55:49;;;;;;;6.90;1.85;;;;;;;14.46;100.00;98094.31;5038154;28;20049;-64
2023/07/16 00:58:17;;;;;;;7.63;1.75;;;;;;;14.48;100.00;98105.50;5013752;28;20411;-64
2023/07/16 01:00:45;;;;;;;6.95;2.20;;;;;;;14.49;100.00;98122.97;5027474;28;20060;-64
2023/07/16 01:03:14;;;;;;;6.22;1.70;;;;;;;14.46;100.00;98118.00;5025334;28;20049;-64
2023/07/16 01:06:05;;;;;;;4.25;1.48;;;;;;;14.51;100.00;98118.38;5028627;28;20049;-65
2023/07/16 01:08:58;;;;;;;6.50;1.67;;;;;;;14.53;100.00;98103.28;5030117;28;20057;-64
2023/07/16 01:11:26;;;;;;;8.38;1.60;;;;;;;14.54;100.00;98123.38;5020782;28;20080;-65
2023/07/16 01:13:56;;;;;;;5.55;1.30;;;;;;;14.56;100.00;98108.25;5032690;28;20057;-64
2023/07/16 01:16:24;;;;;;;3.65;1.38;;;;;;;14.63;100.00;98126.97;5050522;28;20411;-64
2023/07/16 01:18:51;;;;;;;4.65;1.35;;;;;;;14.52;100.00;98127.94;5036245;28;20128;-64
2023/07/16 01:21:21;;;;;;;3.42;1.33;;;;;;;14.54;100.00;98126.81;5040982;28;20057;-64
2023/07/16 01:23:57;;;;;;;7.43;1.63;;;;;;;14.52;100.00;98133.19;5040197;28;20052;-64
2023/07/16 01:26:49;;;;;;;4.32;1.30;;;;;;;14.56;100.00;98135.41;5032058;28;20072;-64
2023/07/16 01:29:36;;;;;;;6.30;1.60;;;;;;;14.44;100.00;98134.75;5045763;28;20122;-64
2023/07/16 01:32:05;;;;;;;5.57;1.50;;;;;;;14.22;100.00;98125.44;5016776;28;20053;-64
2023/07/16 01:34:36;;;;;;;5.55;1.63;;;;;;;14.39;100.00;98141.44;5044279;28;20057;-64
2023/07/16 01:37:04;;;;;;;9.32;1.75;;;;;;;14.40;100.00;98143.09;5023697;28;20060;-64
2023/07/16 01:39:35;;;;;;;5.57;1.70;;;;;;;14.24;100.00;98133.19;5041834;28;20054;-64
2023/07/16 01:42:02;;;;;;;4.95;1.50;;;;;;;14.32;100.00;98151.69;5014924;28;20422;-64
2023/07/16 01:44:29;;;;;;;5.25;1.75;;;;;;;14.15;100.00;98147.22;5042288;28;20088;-64
2023/07/16 01:47:23;;;;;;;6.78;1.55;;;;;;;14.00;100.00;98157.34;5017966;28;20044;-65
2023/07/16 01:49:52;;;;;;;6.38;1.60;;;;;;;13.80;100.00;98157.41;5016230;28;20100;-64
2023/07/16 01:52:20;;;;;;;5.47;1.60;;;;;;;13.91;100.00;98168.75;5032714;28;20410;-64
2023/07/16 01:54:50;;;;;;;6.85;1.80;;;;;;;13.79;100.00;98168.06;5026723;28;20057;-64
2023/07/16 01:57:17;;;;;;;5.70;1.73;;;;;;;13.79;100.00;98178.56;5049472;28;20049;-65
2023/07/16 01:59:44;;;;;;;6.82;1.90;;;;;;;13.71;100.00;98183.72;5031969;28;20049;-65
2023/07/16 02:02:11;;;;;;;4.85;1.52;;;;;;;13.65;100.00;98179.84;5041867;28;20053;-65
2023/07/16 02:04:38;;;;;;;4.75;1.55;;;;;;;13.90;100.00;98174.97;5040143;28;20052;-65
2023/07/16 02:07:05;;;;;;;4.43;1.50;;;;;;;14.09;100.00;98177.53;5044391;28;20037;-65
2023/07/16 02:09:35;;;;;;;5.50;1.90;;;;;;;14.22;100.00;98182.53;5029013;28;20058;-65
2023/07/16 02:12:02;;;;;;;6.05;1.75;;;;;;;14.29;100.00;98182.75;5039398;28;20064;-65
2023/07/16 02:14:29;;;;;;;5.60;1.60;;;;;;;14.36;100.00;98192.59;5049798;28;20140;-65
2023/07/16 02:16:56;;;;;;;4.85;1.50;;;;;;;14.37;100.00;98183.69;5049817;28;20418;-65
2023/07/16 02:19:25;;;;;;;4.57;1.40;;;;;;;14.25;100.00;98182.22;5032351;28;20085;-65
2023/07/16 02:21:54;;;;;;;4.63;1.55;;;;;;;14.36;100.00;98174.16;5016260;28;20131;-65
2023/07/16 02:24:22;;;;;;;4.28;1.38;;;;;;;14.38;100.00;98171.38;5029754;28;20475;-64
2023/07/16 02:26:50;;;;;;;7.15;1.67;;;;;;;14.48;100.00;98182.69;5029749;28;20104;-64
2023/07/16 02:29:18;;;;;;;5.82;1.50;;;;;;;14.41;100.00;98178.97;5009983;28;20458;-64
2023/07/16 02:31:46;;;;;;;3.30;1.20;;;;;;;14.48;100.00;98177.41;5029956;28;20049;-65
2023/07/16 02:34:13;;;;;;;5.43;1.35;;;;;;;14.52;100.00;98176.16;5028338;28;20069;-65
2023/07/16 02:36:40;;;;;;;4.97;1.50;;;;;;;14.48;100.00;98180.03;5029518;28;20052;-65
2023/07/16 02:39:06;;;;;;;4.40;1.27;;;;;;;14.54;100.00;98187.38;5029065;28;20055;-65
2023/07/16 02:41:33;;;;;;;5.47;1.33;;;;;;;14.61;100.00;98187.66;5027348;28;20099;-65
2023/07/16 02:44:05;;;;;;;4.57;1.42;;;;;;;14.53;100.00;98187.53;5029627;28;20060;-64
2023/07/16 02:46:33;;;;;;;4.20;1.17;;;;;;;14.44;100.00;98176.88;5013957;28;20045;-64
2023/07/16 02:49:00;;;;;;;4.05;1.30;;;;;;;14.53;100.00;98167.28;5032000;28;20081;-64
2023/07/16 02:51:27;;;;;;;4.85;1.40;;;;;;;14.63;100.00;98167.28;5032277;28;20057;-64
2023/07/16 02:53:53;;;;;;;2.83;1.35;;;;;;;14.71;100.00;98175.25;5034073;28;20080;-64
2023/07/16 02:56:20;;;;;;;9.20;1.42;;;;;;;14.74;100.00;98176.78;5033539;28;20056;-65
2023/07/16 02:58:48;;;;;;;4.28;1.10;;;;;;;14.86;100.00;98174.78;5015827;28;20049;-65
2023/07/16 03:01:15;;;;;;;2.50;1.10;;;;;;;14.73;100.00;98177.75;5026412;28;20483;-65
2023/07/16 03:03:42;;;;;;;8.77;1.50;;;;;;;14.81;100.00;98185.75;5033471;28;20056;-65
2023/07/16 03:06:09;;;;;;;7.93;1.90;;;;;;;14.76;100.00;98180.09;5033475;28;20049;-65
2023/07/16 03:08:37;;;;;;;7.03;1.60;;;;;;;14.84;100.00;98190.75;5033027;28;20041;-65
2023/07/16 03:11:04;;;;;;;5.80;1.48;;;;;;;14.71;100.00;98190.25;5013726;28;20052;-65
2023/07/16 03:13:31;;;;;;;4.95;1.52;;;;;;;14.73;100.00;98204.94;5033523;28;20058;-64
2023/07/16 03:15:58;;;;;;;5.55;1.73;;;;;;;14.61;100.00;98193.75;5015568;28;20189;-65
2023/07/16 03:18:29;;;;;;;3.85;1.23;;;;;;;14.70;100.00;98201.75;5033362;28;20056;-65
2023/07/16 03:20:57;;;;;;;3.70;1.23;;;;;;;14.73;100.00;98210.19;5027499;28;20045;-65
2023/07/16 03:23:24;;;;;;;5.32;1.42;;;;;;;14.79;100.00;98209.59;5032998;28;20506;-65
2023/07/16 03:25:52;;;;;;;5.05;1.30;;;;;;;14.75;100.00;98202.97;5032461;28;20379;-65
2023/07/16 03:28:19;;;;;;;4.80;1.33;;;;;;;14.85;100.00;98221.34;5033784;28;20064;-64
2023/07/16 03:30:50;;;;;;;2.15;1.10;;;;;;;14.81;100.00;98205.00;5010288;28;20054;-64
2023/07/16 03:33:17;;;;;;;8.13;1.83;;;;;;;14.89;100.00;98209.56;5002536;28;20083;-64
2023/07/16 03:35:46;;;;;;;10.40;1.88;;;;;;;14.94;100.00;98219.66;5031045;28;20088;-65
2023/07/16 03:38:17;;;;;;;4.18;1.20;;;;;;;14.97;100.00;98222.00;5013750;28;20338;-65
2023/07/16 03:40:52;;;;;;;3.55;1.08;;;;;;;14.99;100.00;98222.69;5013356;28;20057;-65
2023/07/16 03:43:23;;;;;;;3.38;1.33;;;;;;;15.09;100.00;98218.19;5013574;28;20058;-65
2023/07/16 03:45:53;;;;;;;3.63;1.10;;;;;;;15.11;100.00;98213.59;5005839;28;20041;-63
2023/07/16 03:48:21;;;;;;;2.85;1.20;;;;;;;15.11;100.00;98204.88;5014927;28;20080;-64
2023/07/16 03:50:48;;;;;;;2.63;1.10;;;;;;;15.18;100.00;98219.09;5029033;28;20127;-64
2023/07/16 03:53:19;;;;;;;4.50;1.30;;;;;;;15.22;100.00;98215.19;5014099;28;20088;-64
2023/07/16 03:55:47;;;;;;;1.63;0.88;;;;;;;15.14;100.00;98213.31;5031248;28;20487;-64
2023/07/16 03:58:18;;;;;;;3.28;0.90;;;;;;;15.17;100.00;98223.56;5013558;28;20045;-65
2023/07/16 04:00:46;;;;;;;3.60;1.10;;;;;;;15.25;100.00;98228.06;5025582;28;20049;-65
2023/07/16 04:03:14;;;;;;;4.20;1.30;;;;;;;15.34;100.00;98236.91;5014210;28;20053;-65
2023/07/16 04:05:42;;;;;;;1.92;0.95;;;;;;;15.27;100.00;98238.47;5013970;28;20353;-65
2023/07/16 04:08:09;;;;;;;5.25;1.20;;;;;;;15.30;100.00;98232.91;5014687;28;20100;-65
2023/07/16 04:10:37;;;;;;;2.30;0.90;;;;;;;15.29;100.00;98244.41;5025873;28;20056;-65
2023/07/16 04:13:04;;;;;;;2.35;0.95;;;;;;;15.37;100.00;98247.97;5014373;28;20061;-64
2023/07/16 04:15:32;;;;;;;4.10;1.00;;;;;;;15.41;100.00;98242.41;5016409;28;20045;-64
2023/07/16 04:18:00;;;;;;;3.83;1.02;;;;;;;15.30;100.00;98252.19;5014297;28;20054;-64
2023/07/16 04:20:28;;;;;;;6.30;1.10;;;;;;;15.18;100.00;98250.72;5013159;28;20431;-64
2023/07/16 04:22:55;;;;;;;1.70;0.95;;;;;;;15.21;100.00;98253.09;5032052;28;20050;-64
2023/07/16 04:25:22;;;;;;;2.22;1.00;;;;;;;15.13;100.00;98252.97;5031910;28;20115;-64
2023/07/16 04:27:49;;;;;;;3.92;1.25;;;;;;;15.19;100.00;98263.78;5031762;28;20368;-64
2023/07/16 04:30:18;;;;;;;4.18;1.35;;;;;;;15.05;100.00;98251.09;5012367;28;20052;-64
2023/07/16 04:32:46;;;;;;;3.60;1.10;;;;;;;15.16;100.00;98265.88;5031855;28;20128;-64
2023/07/16 04:35:14;;;;;;;4.60;1.30;;;;;;;15.19;100.00;98271.69;5031703;28;20111;-64
2023/07/16 04:37:42;;;;;;;3.28;1.55;;;;;;;15.11;100.00;98271.56;5031543;28;20546;-65
2023/07/16 04:40:10;;;;;;;3.70;1.20;;;;;;;15.11;100.00;98279.47;5026888;28;20049;-63
2023/07/16 04:42:37;;;;;;;3.08;1.10;;;;;;;15.13;100.00;98268.78;5030661;28;20046;-64
2023/07/16 04:45:05;;;;;;;2.50;1.10;;;;;;;15.17;100.00;98276.28;5031792;28;20379;-64
2023/07/16 04:47:32;;;;;;;1.98;0.93;;;;;;;15.02;100.00;98279.53;5031652;28;20084;-64
2023/07/16 04:49:59;;;;;;;2.95;1.10;;;;;;;14.97;100.00;98282.59;5029165;28;20080;-64
2023/07/16 04:52:26;;;;;;;3.47;1.10;;;;;;;15.06;100.00;98280.91;5031738;28;20060;-64
2023/07/16 04:54:53;;;;;;;5.43;1.30;;;;;;;14.90;100.00;98271.81;5031595;28;20053;-64
2023/07/16 04:57:20;;;;;;;3.72;1.25;;;;;;;15.03;100.00;98291.72;5003789;28;20052;-64
2023/07/16 04:59:50;;;;;;;3.00;1.30;;;;;;;15.00;100.00;98288.41;5022265;28;20053;-64
2023/07/16 05:02:17;;;;;;;5.10;1.10;;;;;;;15.07;100.00;98293.09;5030786;28;20057;-65
2023/07/16 05:04:49;;;;;;;3.25;1.23;;;;;;;15.21;100.00;98299.69;5012770;28;20049;-65
2023/07/16 05:07:18;;;;;;;3.37;1.27;;;;;;;15.29;100.00;98297.16;5030473;28;20045;-65
2023/07/16 05:09:45;;;;;;;5.40;1.40;;;;;;;15.23;100.00;98293.28;5025788;28;20049;-65
2023/07/16 05:12:12;;;;;;;2.50;1.02;;;;;;;15.17;100.00;98300.00;5028441;28;20160;-65
2023/07/16 05:14:45;;;;;;;3.53;1.13;;;;;;;15.22;100.00;98314.53;5029620;28;20491;-65
2023/07/16 05:17:15;;;;;;;3.78;1.30;;;;;;;15.12;100.00;98312.78;5012169;28;20144;-65
2023/07/16 05:19:43;;;;;;;2.80;1.15;;;;;;;15.17;100.00;98318.44;5010696;28;20053;-65
2023/07/16 05:22:11;;;;;;;4.53;1.27;;;;;;;15.19;100.00;98313.00;5030480;28;20103;-65
2023/07/16 05:24:38;;;;;;;4.43;1.27;;;;;;;15.18;100.00;98314.81;5030793;28;20049;-65
2023/07/16 05:27:06;;;;;;;3.63;1.20;;;;;;;15.24;100.00;98321.28;5011889;28;20136;-65
2023/07/16 05:29:34;;;;;;;3.70;1.35;;;;;;;15.37;100.00;98332.34;5028850;28;20521;-65
2023/07/16 05:32:02;;;;;;;4.53;1.40;;;;;;;15.44;100.00;98323.84;5029321;28;20375;-65
2023/07/16 05:34:29;;;;;;;5.07;1.20;;;;;;;15.54;100.00;98325.44;5030837;28;20571;-65
2023/07/16 05:36:56;;;;;;;3.60;1.20;;;;;;;15.71;100.00;98330.91;5029874;28;20042;-65
2023/07/16 05:39:25;;;;;;;5.05;1.17;;;;;;;15.63;100.00;98334.25;5009253;28;20050;-65
2023/07/16 05:41:52;;;;;;;3.33;1.10;;;;;;;15.75;100.00;98327.00;5012780;28;20431;-65
2023/07/16 05:44:20;;;;;;;2.42;1.00;;;;;;;15.82;100.00;98329.88;5006940;28;20056;-65
2023/07/16 05:46:46;;;;;;;3.13;1.20;;;;;;;15.81;100.00;98342.25;5015635;28;20052;-65
2023/07/16 05:49:13;;;;;;;2.92;1.20;;;;;;;16.04;100.00;98347.91;5027357;28;20556;-64
2023/07/16 05:51:42;;;;;;;2.30;0.80;;;;;;;16.04;100.00;98353.19;5013094;28;20056;-64
2023/07/16 05:54:10;;;;;;;2.72;0.90;;;;;;;16.00;100.00;98345.72;5030446;28;20354;-64
2023/07/16 05:56:37;;;;;;;2.88;1.00;;;;;;;16.02;100.00;98349.84;5028663;28;20103;-64
2023/07/16 05:59:03;;;;;;;2.35;0.95;;;;;;;16.04;100.00;98344.44;5029519;28;20061;-64
2023/07/16 06:01:30;;;;;;;2.05;0.95;;;;;;;16.06;100.00;98350.38;5028187;28;20522;-64
2023/07/16 06:03:57;;;;;;;2.95;1.00;;;;;;;16.08;100.00;98351.91;5029465;28;20071;-64
2023/07/16 06:06:29;;;;;;;3.72;1.00;;;;;;;16.04;100.00;98362.91;5029295;28;20057;-63
2023/07/16 06:08:57;;;;;;;3.28;1.00;;;;;;;16.04;100.00;98361.13;5012848;28;20463;-63
2023/07/16 06:11:24;;;;;;;2.53;1.00;;;;;;;16.09;100.00;98372.03;5026736;28;20053;-64
2023/07/16 06:13:58;;;;;;;4.20;1.35;;;;;;;15.90;100.00;98365.09;5010623;28;20679;-64
2023/07/16 06:16:26;;;;;;;1.90;0.90;;;;;;;16.01;100.00;98368.50;5011701;28;20123;-64
2023/07/16 06:18:54;;;;;;;3.30;1.10;;;;;;;16.08;100.00;98367.75;5012188;28;20053;-64
2023/07/16 06:21:22;;;;;;;1.88;0.90;;;;;;;16.07;100.00;98368.72;5010796;28;20073;-64
2023/07/16 06:23:49;;;;;;;1.23;0.80;;;;;;;16.12;100.00;98371.72;5031260;28;20053;-64
2023/07/16 06:26:17;;;;;;;4.57;1.10;;;;;;;16.28;100.00;98370.22;5014352;28;20076;-64
2023/07/16 06:28:49;;;;;;;2.03;0.90;;;;;;;16.31;100.00;98370.75;5016171;28;20051;-64
2023/07/16 06:31:18;;;;;;;2.22;0.80;;;;;;;16.50;100.00;98372.41;5026886;28;20061;-65
2023/07/16 06:33:46;;;;;;;3.28;1.00;;;;;;;17.18;100.00;98368.22;5002762;28;20049;-65
2023/07/16 06:36:14;;;;;;;2.10;0.98;;;;;;;17.34;100.00;98364.00;5033942;28;20079;-64
2023/07/16 06:38:42;;;;;;;2.95;0.90;;;;;;;17.46;100.00;98375.97;5033585;28;20045;-65
2023/07/16 06:41:10;;;;;;;2.15;0.90;;;;;;;17.57;100.00;98373.03;5013230;28;20100;-64
2023/07/16 06:43:39;;;;;;;2.08;0.90;;;;;;;17.81;100.00;98388.16;5031909;28;20160;-65
2023/07/16 06:46:07;;;;;;;3.47;1.13;;;;;;;17.63;100.00;98382.94;5025473;28;20076;-64
2023/07/16 06:48:35;;;;;;;4.50;1.15;;;;;;;17.58;100.00;98385.28;5030171;28;20112;-65
2023/07/16 06:51:03;;;;;;;3.42;0.95;;;;;;;18.16;100.00;98390.72;5013727;28;20057;-64
2023/07/16 06:53:32;;;;;;;1.73;0.80;;;;;;;18.97;100.00;98400.50;5013358;28;20499;-65
2023/07/16 06:56:00;;;;;;;1.52;0.73;;;;;;;19.47;100.00;98395.06;5017508;28;20056;-64
2023/07/16 06:58:36;;;;;;;3.33;0.98;;;;;;;19.62;100.00;98397.81;5005902;28;20053;-65
2023/07/16 07:01:04;;;;;;;2.17;0.80;;;;;;;19.49;100.00;98401.03;5018927;28;20056;-65
2023/07/16 07:03:35;;;;;;;3.45;0.70;;;;;;;19.40;100.00;98396.75;5011583;28;20053;-64
2023/07/16 07:06:03;;;;;;;1.73;0.73;;;;;;;19.10;100.00;98401.81;5007615;28;20053;-65
2023/07/16 07:08:31;;;;;;;2.15;0.80;;;;;;;19.30;100.00;98408.41;5018048;28;20081;-64
2023/07/16 07:10:58;;;;;;;2.50;1.10;;;;;;;18.91;100.00;98403.00;5003126;28;20075;-64
2023/07/16 07:13:25;;;;;;;2.10;0.80;;;;;;;18.86;100.00;98415.97;5023249;28;20049;-64
2023/07/16 07:15:52;;;;;;;1.88;0.75;;;;;;;19.39;100.00;98413.66;5021760;28;20076;-64
2023/07/16 07:18:19;;;;;;;1.73;0.85;;;;;;;19.53;100.00;98420.94;5014422;28;20771;-64
2023/07/16 07:20:47;;;;;;;2.28;0.82;;;;;;;19.69;100.00;98420.06;5012989;28;20057;-64
2023/07/16 07:23:15;;;;;;;2.28;0.70;;;;;;;19.55;100.00;98421.59;5019649;28;20057;-65
2023/07/16 07:25:42;;;;;;;2.25;0.80;;;;;;;19.38;100.00;98431.44;5031429;28;20060;-65
2023/07/16 07:28:09;;;;;;;3.85;0.90;;;;;;;19.18;100.00;98436.28;5029168;28;20096;-65
2023/07/16 07:30:37;;;;;;;1.48;0.70;;;;;;;19.04;100.00;98442.28;5010181;28;20087;-65
2023/07/16 07:33:04;;;;;;;1.35;0.70;;;;;;;19.08;100.00;98441.75;5027215;28;20041;-65
2023/07/16 07:35:31;;;;;;;2.80;0.80;;;;;;;18.89;100.00;98445.63;5029970;28;20054;-65
2023/07/16 07:37:59;;;;;;;1.63;0.70;;;;;;;18.92;100.00;98442.63;4998694;28;20046;-65
2023/07/16 07:40:26;;;;;;;1.67;0.60;;;;;;;18.74;100.00;98437.47;5030693;28;20053;-65
2023/07/16 07:42:53;;;;;;;2.17;0.75;;;;;;;18.91;100.00;98448.94;5017042;28;20053;-65
2023/07/16 07:45:19;;;;;;;1.73;0.82;;;;;;;18.92;100.00;98447.91;5020537;28;20056;-65
2023/07/16 07:47:46;;;;;;;2.10;0.85;;;;;;;18.79;100.00;98451.03;5012652;28;20058;-65
2023/07/16 07:50:13;;;;;;;1.65;0.80;;;;;;;18.65;100.00;98450.91;5019265;28;20068;-65
2023/07/16 07:52:40;;;;;;;3.10;1.05;;;;;;;19.27;100.00;98459.16;5030771;28;20088;-65
2023/07/16 07:55:07;;;;;;;1.48;0.95;;;;;;;19.96;100.00;98461.28;5032775;28;20056;-65
2023/07/16 07:57:34;;;;;;;3.70;0.95;;;;;;;20.15;100.00;98462.69;5020182;28;20052;-64
2023/07/16 08:00:01;;;;;;;4.10;0.90;;;;;;;20.18;100.00;98470.28;5020563;28;20058;-65
2023/07/16 08:02:28;;;;;;;3.00;0.90;;;;;;;20.09;100.00;98460.69;5008902;28;20075;-65
2023/07/16 08:04:55;;;;;;;2.63;0.70;;;;;;;19.95;100.00;98469.41;5029752;28;20053;-65
2023/07/16 08:07:23;;;;;;;2.50;0.80;;;;;;;19.81;100.00;98468.28;5017381;28;20095;-65
2023/07/16 08:09:50;;;;;;;2.45;0.90;;;;;;;19.71;100.00;98482.59;5016143;28;20056;-65
2023/07/16 08:12:17;;;;;;;2.15;0.80;;;;;;;19.85;100.00;98488.22;5016389;28;20643;-65
2023/07/16 08:14:43;;;;;;;2.72;0.85;;;;;;;19.82;100.00;98483.25;5021540;28;20494;-66
2023/07/16 08:17:10;;;;;;;3.88;1.13;;;;;;;19.84;100.00;98481.25;5012020;28;20076;-66
2023/07/16 08:19:38;;;;;;;1.10;0.70;;;;;;;19.85;100.00;98485.56;5018227;28;20072;-65
2023/07/16 08:22:06;;;;;;;2.72;0.95;;;;;;;19.75;100.00;98488.41;5023031;28;20049;-65
2023/07/16 08:24:32;;;;;;;1.73;0.73;;;;;;;19.82;100.00;98476.09;5012949;28;20144;-65
2023/07/16 08:26:59;;;;;;;1.40;0.80;;;;;;;20.29;100.00;98485.00;5015437;28;20053;-65
2023/07/16 08:29:26;;;;;;;4.07;0.90;;;;;;;20.14;100.00;98473.47;5020433;28;20041;-65
2023/07/16 08:31:52;;;;;;;1.45;0.70;;;;;;;19.76;100.00;98486.56;5030950;28;20145;-65
2023/07/16 08:34:19;;;;;;;2.00;0.90;;;;;;;19.96;100.00;98487.00;5023759;28;20464;-65
2023/07/16 08:36:46;;;;;;;1.23;0.77;;;;;;;20.12;100.00;98488.75;5030955;28;20506;-65
2023/07/16 08:39:14;;;;;;;2.15;0.80;;;;;;;20.32;100.00;98497.13;5010708;28;20471;-64
2023/07/16 08:41:43;;;;;;;2.35;0.90;;;;;;;19.98;100.00;98495.63;5029367;28;20045;-65
2023/07/16 08:44:13;;;;;;;5.32;0.90;;;;;;;20.05;100.00;98501.91;5020241;28;20041;-65
2023/07/16 08:46:41;;;;;;;2.42;0.90;;;;;;;20.12;100.00;98507.34;5027876;28;20052;-65
2023/07/16 08:49:08;;;;;;;3.08;0.80;;;;;;;20.09;100.00;98506.69;5029122;28;20052;-66
2023/07/16 08:51:36;;;;;;;1.50;0.70;;;;;;;20.21;100.00;98503.66;5025760;28;20467;-66
2023/07/16 08:54:03;;;;;;;3.05;0.80;;;;;;;20.51;100.00;98499.31;5030914;28;20068;-66
2023/07/16 08:56:30;;;;;;;2.67;0.70;;;;;;;20.45;100.00;98503.53;5030828;28;20057;-65
2023/07/16 08:58:58;;;;;;;3.30;0.80;;;;;;;20.47;100.00;98508.66;5027890;28;20049;-66
2023/07/16 09:01:24;;;;;;;4.03;1.10;;;;;;;20.26;100.00;98526.03;5023977;28;20053;-65
2023/07/16 09:03:51;;;;;;;1.15;0.63;;;;;;;20.12;100.00;98525.94;5027277;28;20052;-65
2023/07/16 09:06:18;;;;;;;1.88;0.80;;;;;;;20.36;100.00;98527.66;5030939;28;20049;-65
2023/07/16 09:08:45;;;;;;;4.43;0.90;;;;;;;20.39;100.00;98532.63;5031291;28;20455;-65
2023/07/16 09:11:13;;;;;;;3.55;0.80;;;;;;;20.21;100.00;98516.94;5022446;28;20081;-65
2023/07/16 09:13:46;;;;;;;2.20;0.90;;;;;;;20.11;100.00;98530.41;5030490;28;20045;-65
2023/07/16 09:16:12;;;;;;;3.55;0.80;;;;;;;20.32;100.00;98543.09;5030825;28;20093;-65
2023/07/16 09:18:41;;;;;;;2.55;0.98;;;;;;;20.25;100.00;98548.28;5035794;28;20069;-64
2023/07/16 09:21:18;;;;;;;2.80;1.02;;;;;;;20.07;100.00;98551.19;5019706;28;20566;-64
2023/07/16 09:23:50;;;;;;;2.20;0.80;;;;;;;19.82;100.00;98558.41;5011620;28;20045;-65
2023/07/16 09:26:20;;;;;;;2.28;0.70;;;;;;;19.75;100.00;98546.81;5017479;28;20072;-65
2023/07/16 09:28:52;;;;;;;1.27;0.70;;;;;;;19.70;100.00;98541.97;5027032;28;20487;-64
2023/07/16 09:31:20;;;;;;;1.75;0.90;;;;;;;19.95;100.00;98551.75;5028731;28;20049;-64
2023/07/16 09:33:51;;;;;;;1.70;0.70;;;;;;;20.19;100.00;98554.31;5029684;28;20433;-64
2023/07/16 09:36:24;;;;;;;1.35;0.70;;;;;;;20.29;100.00;98557.59;5031208;28;20540;-65
2023/07/16 09:38:55;;;;;;;1.17;0.70;;;;;;;20.27;100.00;98553.44;5012425;28;20053;-65
2023/07/16 09:41:24;;;;;;;1.17;0.80;;;;;;;20.42;100.00;98561.50;5014379;28;20045;-64
2023/07/16 09:43:53;;;;;;;1.63;0.70;;;;;;;20.47;100.00;98551.19;4995461;28;20053;-64
2023/07/16 09:46:28;;;;;;;1.77;0.80;;;;;;;20.68;100.00;98555.88;5010982;28;20048;-64
2023/07/16 09:48:58;;;;;;;1.52;0.70;;;;;;;20.46;100.00;98571.59;5023004;28;20045;-63
2023/07/16 09:51:29;;;;;;;1.52;0.73;;;;;;;20.55;100.00;98575.03;5017613;28;20060;-64
2023/07/16 09:53:59;;;;;;;2.42;0.80;;;;;;;20.58;100.00;98565.91;5022468;28;20471;-63
2023/07/16 09:56:39;;;;;;;1.33;0.70;;;;;;;20.45;100.00;98567.31;5020432;28;20057;-64
2023/07/16 09:59:11;;;;;;;1.63;0.70;;;;;;;20.52;100.00;98580.69;5008098;28;20053;-64
2023/07/16 10:01:40;;;;;;;1.02;0.63;;;;;;;20.34;100.00;98588.13;5011086;28;20451;-63
2023/07/16 10:04:16;;;;;;;0.90;0.63;;;;;;;19.76;100.00;98588.31;5012211;28;20081;-63
2023/07/16 10:06:59;;;;;;;1.98;0.80;;;;;;;19.78;100.00;98588.97;5012572;28;20068;-63
2023/07/16 10:09:38;;;;;;;2.53;0.90;;;;;;;20.00;100.00;98595.38;5003399;28;20042;-64
2023/07/16 10:12:18;;;;;;;1.50;0.77;;;;;;;20.25;100.00;98589.97;5033268;28;20053;-64
2023/07/16 10:14:52;;;;;;;1.77;0.80;;;;;;;20.90;100.00;98593.34;5016333;28;20088;-66
2023/07/16 10:17:23;;;;;;;3.47;1.17;;;;;;;21.11;100.00;98595.34;5010006;28;20131;-66
2023/07/16 10:19:51;;;;;;;2.50;0.85;;;;;;;21.50;100.00;98594.41;5009217;28;20049;-65
2023/07/16 10:22:19;;;;;;;4.43;1.00;;;;;;;21.55;100.00;98594.69;5021159;28;20060;-64
2023/07/16 10:24:53;;;;;;;1.83;0.70;;;;;;;21.91;100.00;98597.47;5034632;28;20410;-65
2023/07/16 10:27:33;;;;;;;1.42;0.80;;;;;;;22.08;100.00;98600.81;5030912;28;20050;-65
2023/07/16 10:30:04;;;;;;;2.72;0.70;;;;;;;22.37;100.00;98607.97;5012728;28;20046;-65
2023/07/16 10:32:33;;;;;;;2.38;0.70;;;;;;;22.62;100.00;98615.66;5022974;28;20061;-65
2023/07/16 10:35:02;;;;;;;3.53;0.95;;;;;;;22.48;100.00;98606.66;5010891;28;20057;-65
2023/07/16 10:37:32;;;;;;;1.30;0.63;;;;;;;22.59;100.00;98624.03;4991729;28;20134;-66
2023/07/16 10:40:03;;;;;;;2.30;0.77;;;;;;;22.78;100.00;98614.63;5007388;28;20385;-65
2023/07/16 10:42:31;;;;;;;2.22;0.82;;;;;;;22.26;100.00;98621.75;5009238;28;20517;-63
2023/07/16 10:45:00;;;;;;;1.95;0.73;;;;;;;22.33;100.00;98621.88;5025466;28;20495;-65
2023/07/16 10:47:31;;;;;;;2.28;0.93;;;;;;;22.50;100.00;98623.31;5025436;28;20049;-64
2023/07/16 10:49:59;;;;;;;1.25;0.60;;;;;;;23.00;100.00;98625.31;5006261;28;20085;-64
2023/07/16 10:52:27;;;;;;;2.00;0.70;;;;;;;22.77;100.00;98622.81;5007332;28;20050;-64
2023/07/16 10:54:54;;;;;;;1.55;0.70;;;;;;;23.03;100.00;98623.09;5018502;28;20136;-64
2023/07/16 10:57:22;;;;;;;1.27;0.55;;;;;;;23.73;100.00;98633.19;5044761;28;20131;-64
2023/07/16 10:59:52;;;;;;;1.75;0.60;;;;;;;23.84;100.00;98643.38;5030137;28;20100;-65
2023/07/16 11:02:21;;;;;;;2.05;0.50;;;;;;;23.90;100.00;98645.25;5011137;28;20378;-65
2023/07/16 11:04:50;;;;;;;0.80;0.43;;;;;;;23.47;100.00;98648.81;5024511;28;20073;-65
2023/07/16 11:07:16;;;;;;;1.27;0.68;;;;;;;22.71;100.00;98654.53;5019085;28;20092;-65
2023/07/16 11:09:49;;;;;;;1.73;0.70;;;;;;;22.63;100.00;98661.81;5016672;28;20490;-65
2023/07/16 11:12:19;;;;;;;1.67;0.60;;;;;;;22.18;100.00;98667.16;5000001;28;20080;-65
2023/07/16 11:14:48;;;;;;;1.65;0.82;;;;;;;21.74;100.00;98666.09;5016755;28;20050;-65
2023/07/16 11:17:16;;;;;;;1.50;0.70;;;;;;;21.74;100.00;98679.41;5040274;28;20056;-65
2023/07/16 11:19:48;;;;;;;1.10;0.60;;;;;;;21.76;100.00;98684.53;5023536;28;20045;-65
2023/07/16 11:22:16;;;;;;;1.67;0.60;;;;;;;21.73;100.00;98682.25;5038548;28;20080;-65
2023/07/16 11:24:44;;;;;;;3.35;0.80;;;;;;;21.71;100.00;98685.09;5025667;28;20452;-65
2023/07/16 11:27:23;;;;;;;1.13;0.60;;;;;;;21.85;100.00;98686.13;5029252;28;20152;-65
2023/07/16 11:29:53;;;;;;;0.82;0.50;;;;;;;21.89;100.00;98690.09;5007780;28;20128;-65
2023/07/16 11:32:35;;;;;;;1.08;0.50;;;;;;;22.16;100.00;98682.50;5013145;28;20053;-65